sensor_id;sensor_type;location;lat;lon;timestamp;P1;durP1;ratioP1;P2;durP2;ratioP2
46290;SDS011;32023;44.444;26.006;2023-07-20T00:01:58;19.52;;;9.05;;
46290;SDS011;32023;44.444;26.006;2023-07-20T00:04:25;17.88;;;7.80;;
46290;SDS011;32023;44.444;26.006;2023-07-20T00:07:07;20.35;;;8.05;;
46290;SDS011;32023;44.444;26.006;2023-07-20T00:09:46;20.52;;;7.90;;
46290;SDS011;32023;44.444;26.006;2023-07-20T00:12:38;19.17;;;7.80;;
46290;SDS011;32023;44.444;26.006;2023-07-20T00:15:12;23.42;;;7.47;;
46290;SDS011;32023;44.444;26.006;2023-07-20T00:17:41;25.85;;;7.35;;
46290;SDS011;32023;44.444;26.006;2023-07-20T00:20:38;18.10;;;7.13;;
46290;SDS011;32023;44.444;26.006;2023-07-20T00:23:30;20.30;;;6.55;;
46290;SDS011;32023;44.444;26.006;2023-07-20T00:26:02;20.23;;;6.10;;
46290;SDS011;32023;44.444;26.006;2023-07-20T00:32:18;13.38;;;6.60;;
46290;SDS011;32023;44.444;26.006;2023-07-20T00:34:45;20.17;;;7.28;;
46290;SDS011;32023;44.444;26.006;2023-07-20T00:37:18;17.33;;;6.80;;
46290;SDS011;32023;44.444;26.006;2023-07-20T00:40:04;13.02;;;6.30;;
46290;SDS011;32023;44.444;26.006;2023-07-20T00:42:37;17.42;;;6.47;;
46290;SDS011;32023;44.444;26.006;2023-07-20T00:45:09;14.23;;;7.35;;
46290;SDS011;32023;44.444;26.006;2023-07-20T00:48:01;13.20;;;7.05;;
46290;SDS011;32023;44.444;26.006;2023-07-20T00:50:29;17.13;;;7.97;;
46290;SDS011;32023;44.444;26.006;2023-07-20T00:52:57;12.32;;;7.25;;
46290;SDS011;32023;44.444;26.006;2023-07-20T00:55:31;14.32;;;8.45;;
46290;SDS011;32023;44.444;26.006;2023-07-20T00:57:59;14.35;;;8.05;;
46290;SDS011;32023;44.444;26.006;2023-07-20T01:03:01;14.48;;;9.00;;
46290;SDS011;32023;44.444;26.006;2023-07-20T01:14:16;20.58;;;10.00;;
46290;SDS011;32023;44.444;26.006;2023-07-20T01:16:58;16.50;;;8.43;;
46290;SDS011;32023;44.444;26.006;2023-07-20T01:19:29;14.90;;;8.23;;
46290;SDS011;32023;44.444;26.006;2023-07-20T01:22:10;12.18;;;8.82;;
46290;SDS011;32023;44.444;26.006;2023-07-20T01:28:23;14.55;;;9.40;;
46290;SDS011;32023;44.444;26.006;2023-07-20T01:33:48;16.60;;;9.02;;
46290;SDS011;32023;44.444;26.006;2023-07-20T01:36:19;12.27;;;8.55;;
46290;SDS011;32023;44.444;26.006;2023-07-20T01:38:47;16.00;;;8.55;;
46290;SDS011;32023;44.444;26.006;2023-07-20T01:41:14;14.90;;;8.65;;
46290;SDS011;32023;44.444;26.006;2023-07-20T01:46:22;14.60;;;8.05;;
46290;SDS011;32023;44.444;26.006;2023-07-20T01:48:51;18.42;;;8.68;;
46290;SDS011;32023;44.444;26.006;2023-07-20T01:51:18;10.52;;;8.02;;
46290;SDS011;32023;44.444;26.006;2023-07-20T01:53:44;16.88;;;8.60;;
46290;SDS011;32023;44.444;26.006;2023-07-20T01:56:11;14.90;;;8.68;;
46290;SDS011;32023;44.444;26.006;2023-07-20T01:58:38;14.68;;;8.45;;
46290;SDS011;32023;44.444;26.006;2023-07-20T02:01:04;13.25;;;9.48;;
46290;SDS011;32023;44.444;26.006;2023-07-20T02:03:31;13.35;;;10.18;;
46290;SDS011;32023;44.444;26.006;2023-07-20T02:05:57;16.35;;;9.45;;
46290;SDS011;32023;44.444;26.006;2023-07-20T02:08:32;13.77;;;9.02;;
46290;SDS011;32023;44.444;26.006;2023-07-20T02:11:02;13.75;;;8.93;;
46290;SDS011;32023;44.444;26.006;2023-07-20T02:13:29;18.15;;;9.98;;
46290;SDS011;32023;44.444;26.006;2023-07-20T02:18:46;13.85;;;9.63;;
46290;SDS011;32023;44.444;26.006;2023-07-20T02:21:29;13.23;;;10.20;;
46290;SDS011;32023;44.444;26.006;2023-07-20T02:23:55;14.90;;;10.47;;
46290;SDS011;32023;44.444;26.006;2023-07-20T02:26:37;18.02;;;11.20;;
46290;SDS011;32023;44.444;26.006;2023-07-20T02:29:11;16.65;;;11.27;;
46290;SDS011;32023;44.444;26.006;2023-07-20T02:34:53;14.00;;;10.07;;
46290;SDS011;32023;44.444;26.006;2023-07-20T02:37:21;14.93;;;9.90;;
46290;SDS011;32023;44.444;26.006;2023-07-20T02:39:58;22.40;;;10.48;;
46290;SDS011;32023;44.444;26.006;2023-07-20T02:42:35;15.15;;;9.13;;
46290;SDS011;32023;44.444;26.006;2023-07-20T02:45:14;13.57;;;8.80;;
46290;SDS011;32023;44.444;26.006;2023-07-20T02:47:41;14.45;;;9.10;;
46290;SDS011;32023;44.444;26.006;2023-07-20T02:50:10;12.00;;;8.57;;
46290;SDS011;32023;44.444;26.006;2023-07-20T02:52:41;22.15;;;9.20;;
46290;SDS011;32023;44.444;26.006;2023-07-20T02:55:19;13.80;;;8.88;;
46290;SDS011;32023;44.444;26.006;2023-07-20T02:57:47;17.05;;;7.93;;
46290;SDS011;32023;44.444;26.006;2023-07-20T03:00:13;14.68;;;7.90;;
46290;SDS011;32023;44.444;26.006;2023-07-20T03:02:41;14.20;;;8.25;;
46290;SDS011;32023;44.444;26.006;2023-07-20T03:07:59;12.35;;;7.93;;
46290;SDS011;32023;44.444;26.006;2023-07-20T03:10:28;16.65;;;8.95;;
46290;SDS011;32023;44.444;26.006;2023-07-20T03:12:57;17.23;;;9.43;;
46290;SDS011;32023;44.444;26.006;2023-07-20T03:15:27;15.88;;;9.65;;
46290;SDS011;32023;44.444;26.006;2023-07-20T03:18:01;17.52;;;10.13;;
46290;SDS011;32023;44.444;26.006;2023-07-20T03:20:31;15.95;;;9.57;;
46290;SDS011;32023;44.444;26.006;2023-07-20T03:22:57;17.50;;;10.15;;
46290;SDS011;32023;44.444;26.006;2023-07-20T03:25:32;18.10;;;10.18;;
46290;SDS011;32023;44.444;26.006;2023-07-20T03:30:35;22.55;;;9.90;;
46290;SDS011;32023;44.444;26.006;2023-07-20T03:33:05;20.98;;;10.65;;
46290;SDS011;32023;44.444;26.006;2023-07-20T03:35:31;17.08;;;9.85;;
46290;SDS011;32023;44.444;26.006;2023-07-20T03:38:11;20.05;;;9.88;;
46290;SDS011;32023;44.444;26.006;2023-07-20T03:40:37;20.38;;;9.40;;
46290;SDS011;32023;44.444;26.006;2023-07-20T03:43:16;17.95;;;9.50;;
46290;SDS011;32023;44.444;26.006;2023-07-20T03:45:45;19.02;;;9.40;;
46290;SDS011;32023;44.444;26.006;2023-07-20T03:51:11;19.15;;;8.57;;
46290;SDS011;32023;44.444;26.006;2023-07-20T03:53:41;12.77;;;7.82;;
46290;SDS011;32023;44.444;26.006;2023-07-20T03:56:10;18.00;;;8.10;;
46290;SDS011;32023;44.444;26.006;2023-07-20T03:58:45;23.50;;;8.23;;
46290;SDS011;32023;44.444;26.006;2023-07-20T04:01:12;16.40;;;7.68;;
46290;SDS011;32023;44.444;26.006;2023-07-20T04:03:38;14.25;;;7.00;;
46290;SDS011;32023;44.444;26.006;2023-07-20T04:06:14;19.10;;;7.95;;
46290;SDS011;32023;44.444;26.006;2023-07-20T04:14:38;14.55;;;6.50;;
46290;SDS011;32023;44.444;26.006;2023-07-20T04:17:20;20.77;;;6.88;;
46290;SDS011;32023;44.444;26.006;2023-07-20T04:19:49;17.23;;;6.28;;
46290;SDS011;32023;44.444;26.006;2023-07-20T04:22:19;17.92;;;6.25;;
46290;SDS011;32023;44.444;26.006;2023-07-20T04:24:48;12.60;;;5.80;;
46290;SDS011;32023;44.444;26.006;2023-07-20T04:27:15;19.73;;;6.63;;
46290;SDS011;32023;44.444;26.006;2023-07-20T04:29:42;22.60;;;6.53;;
46290;SDS011;32023;44.444;26.006;2023-07-20T04:32:08;8.93;;;5.40;;
46290;SDS011;32023;44.444;26.006;2023-07-20T04:34:39;14.70;;;5.70;;
46290;SDS011;32023;44.444;26.006;2023-07-20T04:37:05;16.83;;;5.90;;
46290;SDS011;32023;44.444;26.006;2023-07-20T04:39:35;16.55;;;6.50;;
46290;SDS011;32023;44.444;26.006;2023-07-20T04:42:08;13.30;;;5.72;;
46290;SDS011;32023;44.444;26.006;2023-07-20T04:55:11;13.27;;;4.60;;
46290;SDS011;32023;44.444;26.006;2023-07-20T04:57:37;8.38;;;4.85;;
46290;SDS011;32023;44.444;26.006;2023-07-20T05:00:04;9.43;;;4.88;;
46290;SDS011;32023;44.444;26.006;2023-07-20T05:02:31;10.82;;;4.97;;
46290;SDS011;32023;44.444;26.006;2023-07-20T05:04:57;11.43;;;4.70;;
46290;SDS011;32023;44.444;26.006;2023-07-20T05:07:24;7.03;;;4.00;;
46290;SDS011;32023;44.444;26.006;2023-07-20T05:09:50;10.27;;;4.25;;
46290;SDS011;32023;44.444;26.006;2023-07-20T05:12:30;12.63;;;4.90;;
46290;SDS011;32023;44.444;26.006;2023-07-20T05:14:59;9.63;;;3.83;;
46290;SDS011;32023;44.444;26.006;2023-07-20T05:17:25;9.60;;;3.88;;
46290;SDS011;32023;44.444;26.006;2023-07-20T05:19:54;10.40;;;3.67;;
46290;SDS011;32023;44.444;26.006;2023-07-20T05:22:20;13.82;;;4.18;;
46290;SDS011;32023;44.444;26.006;2023-07-20T05:24:49;13.15;;;4.20;;
46290;SDS011;32023;44.444;26.006;2023-07-20T05:27:19;9.45;;;3.78;;
46290;SDS011;32023;44.444;26.006;2023-07-20T05:32:40;7.97;;;3.97;;
46290;SDS011;32023;44.444;26.006;2023-07-20T05:35:06;10.73;;;4.70;;
46290;SDS011;32023;44.444;26.006;2023-07-20T05:37:50;13.68;;;4.72;;
46290;SDS011;32023;44.444;26.006;2023-07-20T05:40:29;11.73;;;4.00;;
46290;SDS011;32023;44.444;26.006;2023-07-20T05:43:05;9.73;;;4.50;;
46290;SDS011;32023;44.444;26.006;2023-07-20T05:45:37;12.20;;;4.20;;
46290;SDS011;32023;44.444;26.006;2023-07-20T05:48:11;10.77;;;4.32;;
46290;SDS011;32023;44.444;26.006;2023-07-20T06:03:49;13.15;;;4.72;;
46290;SDS011;32023;44.444;26.006;2023-07-20T06:09:29;11.02;;;5.35;;
46290;SDS011;32023;44.444;26.006;2023-07-20T06:16:33;7.45;;;4.40;;
46290;SDS011;32023;44.444;26.006;2023-07-20T06:19:53;17.83;;;5.43;;
46290;SDS011;32023;44.444;26.006;2023-07-20T06:26:06;10.80;;;4.72;;
46290;SDS011;32023;44.444;26.006;2023-07-20T06:28:55;12.43;;;5.40;;
46290;SDS011;32023;44.444;26.006;2023-07-20T06:54:21;8.98;;;5.03;;
46290;SDS011;32023;44.444;26.006;2023-07-20T07:05:37;7.80;;;4.55;;
46290;SDS011;32023;44.444;26.006;2023-07-20T07:22:01;9.93;;;5.15;;
46290;SDS011;32023;44.444;26.006;2023-07-20T07:25:35;11.15;;;5.00;;
46290;SDS011;32023;44.444;26.006;2023-07-20T07:28:43;13.10;;;4.32;;
46290;SDS011;32023;44.444;26.006;2023-07-20T07:39:31;7.70;;;3.72;;
46290;SDS011;32023;44.444;26.006;2023-07-20T07:48:55;8.82;;;4.03;;
46290;SDS011;32023;44.444;26.006;2023-07-20T08:02:31;10.88;;;4.25;;
46290;SDS011;32023;44.444;26.006;2023-07-20T09:01:59;4.80;;;3.63;;
46290;SDS011;32023;44.444;26.006;2023-07-20T09:11:51;11.25;;;3.38;;
46290;SDS011;32023;44.444;26.006;2023-07-20T09:14:52;9.05;;;4.00;;
46290;SDS011;32023;44.444;26.006;2023-07-20T09:21:37;8.90;;;3.88;;
46290;SDS011;32023;44.444;26.006;2023-07-20T09:29:01;11.15;;;3.25;;
46290;SDS011;32023;44.444;26.006;2023-07-20T09:31:40;11.20;;;4.03;;
46290;SDS011;32023;44.444;26.006;2023-07-20T10:03:42;11.82;;;3.70;;
46290;SDS011;32023;44.444;26.006;2023-07-20T10:06:54;6.13;;;3.53;;
46290;SDS011;32023;44.444;26.006;2023-07-20T10:40:38;5.20;;;2.67;;
46290;SDS011;32023;44.444;26.006;2023-07-20T10:50:12;9.18;;;2.42;;
46290;SDS011;32023;44.444;26.006;2023-07-20T11:10:34;5.25;;;2.58;;
46290;SDS011;32023;44.444;26.006;2023-07-20T11:23:27;9.02;;;2.95;;
46290;SDS011;32023;44.444;26.006;2023-07-20T11:26:14;11.05;;;2.38;;
46290;SDS011;32023;44.444;26.006;2023-07-20T11:32:30;6.78;;;2.50;;
46290;SDS011;32023;44.444;26.006;2023-07-20T11:58:00;6.43;;;2.15;;
46290;SDS011;32023;44.444;26.006;2023-07-20T12:01:11;7.38;;;2.38;;
46290;SDS011;32023;44.444;26.006;2023-07-20T12:03:44;8.38;;;2.85;;
46290;SDS011;32023;44.444;26.006;2023-07-20T12:06:40;10.63;;;2.92;;
46290;SDS011;32023;44.444;26.006;2023-07-20T12:09:17;6.45;;;2.00;;
46290;SDS011;32023;44.444;26.006;2023-07-20T12:11:55;8.63;;;2.47;;
46290;SDS011;32023;44.444;26.006;2023-07-20T12:14:24;9.38;;;2.28;;
46290;SDS011;32023;44.444;26.006;2023-07-20T12:22:37;6.13;;;2.78;;
46290;SDS011;32023;44.444;26.006;2023-07-20T12:25:06;6.03;;;2.13;;
46290;SDS011;32023;44.444;26.006;2023-07-20T12:31:14;8.55;;;2.70;;
46290;SDS011;32023;44.444;26.006;2023-07-20T12:34:06;11.20;;;2.50;;
46290;SDS011;32023;44.444;26.006;2023-07-20T12:36:34;8.60;;;2.05;;
46290;SDS011;32023;44.444;26.006;2023-07-20T12:39:13;8.43;;;2.45;;
46290;SDS011;32023;44.444;26.006;2023-07-20T12:42:13;5.72;;;2.08;;
46290;SDS011;32023;44.444;26.006;2023-07-20T12:44:47;8.25;;;2.65;;
46290;SDS011;32023;44.444;26.006;2023-07-20T12:47:33;6.90;;;2.60;;
46290;SDS011;32023;44.444;26.006;2023-07-20T12:59:38;7.15;;;2.50;;
46290;SDS011;32023;44.444;26.006;2023-07-20T13:02:07;7.75;;;2.40;;
46290;SDS011;32023;44.444;26.006;2023-07-20T13:04:41;8.30;;;2.22;;
46290;SDS011;32023;44.444;26.006;2023-07-20T13:07:15;3.30;;;1.80;;
46290;SDS011;32023;44.444;26.006;2023-07-20T13:13:24;9.43;;;2.33;;
46290;SDS011;32023;44.444;26.006;2023-07-20T13:25:44;6.07;;;2.50;;
46290;SDS011;32023;44.444;26.006;2023-07-20T13:34:55;8.15;;;1.92;;
46290;SDS011;32023;44.444;26.006;2023-07-20T13:37:32;15.25;;;2.72;;
46290;SDS011;32023;44.444;26.006;2023-07-20T13:40:06;7.32;;;2.40;;
46290;SDS011;32023;44.444;26.006;2023-07-20T13:48:53;8.07;;;2.40;;
46290;SDS011;32023;44.444;26.006;2023-07-20T13:54:09;11.88;;;2.58;;
46290;SDS011;32023;44.444;26.006;2023-07-20T13:56:50;9.13;;;2.47;;
46290;SDS011;32023;44.444;26.006;2023-07-20T13:59:43;8.48;;;2.75;;
46290;SDS011;32023;44.444;26.006;2023-07-20T14:02:43;12.30;;;2.78;;
46290;SDS011;32023;44.444;26.006;2023-07-20T14:05:12;7.57;;;2.17;;
46290;SDS011;32023;44.444;26.006;2023-07-20T14:07:52;9.60;;;3.30;;
46290;SDS011;32023;44.444;26.006;2023-07-20T14:11:00;5.85;;;2.67;;
46290;SDS011;32023;44.444;26.006;2023-07-20T14:13:26;6.28;;;2.20;;
46290;SDS011;32023;44.444;26.006;2023-07-20T14:16:22;10.20;;;2.42;;
46290;SDS011;32023;44.444;26.006;2023-07-20T14:18:51;11.30;;;2.78;;
46290;SDS011;32023;44.444;26.006;2023-07-20T14:21:19;10.25;;;2.72;;
46290;SDS011;32023;44.444;26.006;2023-07-20T14:23:52;10.82;;;3.22;;
46290;SDS011;32023;44.444;26.006;2023-07-20T14:26:23;17.00;;;3.15;;
46290;SDS011;32023;44.444;26.006;2023-07-20T14:29:09;4.97;;;2.65;;
46290;SDS011;32023;44.444;26.006;2023-07-20T14:34:56;5.93;;;2.75;;
46290;SDS011;32023;44.444;26.006;2023-07-20T14:37:31;9.75;;;2.85;;
46290;SDS011;32023;44.444;26.006;2023-07-20T14:39:59;8.40;;;2.50;;
46290;SDS011;32023;44.444;26.006;2023-07-20T14:42:54;6.88;;;2.55;;
46290;SDS011;32023;44.444;26.006;2023-07-20T14:45:42;6.93;;;2.47;;
46290;SDS011;32023;44.444;26.006;2023-07-20T14:50:44;6.00;;;2.60;;
46290;SDS011;32023;44.444;26.006;2023-07-20T14:53:37;4.72;;;2.88;;
46290;SDS011;32023;44.444;26.006;2023-07-20T14:56:21;8.30;;;2.10;;
46290;SDS011;32023;44.444;26.006;2023-07-20T14:59:05;5.88;;;2.58;;
46290;SDS011;32023;44.444;26.006;2023-07-20T15:01:37;5.22;;;2.40;;
46290;SDS011;32023;44.444;26.006;2023-07-20T15:04:10;5.53;;;2.55;;
46290;SDS011;32023;44.444;26.006;2023-07-20T15:06:47;8.25;;;2.70;;
46290;SDS011;32023;44.444;26.006;2023-07-20T15:09:22;8.90;;;2.88;;
46290;SDS011;32023;44.444;26.006;2023-07-20T15:11:48;7.45;;;2.70;;
46290;SDS011;32023;44.444;26.006;2023-07-20T15:14:17;8.05;;;2.85;;
46290;SDS011;32023;44.444;26.006;2023-07-20T15:16:48;10.75;;;3.40;;
46290;SDS011;32023;44.444;26.006;2023-07-20T15:19:56;14.57;;;3.00;;
46290;SDS011;32023;44.444;26.006;2023-07-20T15:25:48;7.00;;;2.83;;
46290;SDS011;32023;44.444;26.006;2023-07-20T15:28:29;9.40;;;2.92;;
46290;SDS011;32023;44.444;26.006;2023-07-20T15:34:46;9.30;;;3.38;;
46290;SDS011;32023;44.444;26.006;2023-07-20T15:37:32;16.25;;;4.57;;
46290;SDS011;32023;44.444;26.006;2023-07-20T15:50:11;6.22;;;3.33;;
46290;SDS011;32023;44.444;26.006;2023-07-20T15:52:55;7.13;;;3.53;;
46290;SDS011;32023;44.444;26.006;2023-07-20T15:55:26;6.40;;;3.15;;
46290;SDS011;32023;44.444;26.006;2023-07-20T15:58:15;9.48;;;4.13;;
46290;SDS011;32023;44.444;26.006;2023-07-20T16:00:52;10.35;;;3.50;;
46290;SDS011;32023;44.444;26.006;2023-07-20T16:03:22;7.10;;;3.40;;
46290;SDS011;32023;44.444;26.006;2023-07-20T16:08:46;6.65;;;3.58;;
46290;SDS011;32023;44.444;26.006;2023-07-20T16:24:32;11.82;;;4.38;;
46290;SDS011;32023;44.444;26.006;2023-07-20T16:27:31;6.57;;;3.50;;
46290;SDS011;32023;44.444;26.006;2023-07-20T16:30:16;6.43;;;3.55;;
46290;SDS011;32023;44.444;26.006;2023-07-20T16:45:42;10.15;;;4.25;;
46290;SDS011;32023;44.444;26.006;2023-07-20T16:51:32;10.43;;;3.83;;
46290;SDS011;32023;44.444;26.006;2023-07-20T16:54:17;7.90;;;3.75;;
46290;SDS011;32023;44.444;26.006;2023-07-20T16:56:57;8.85;;;3.63;;
46290;SDS011;32023;44.444;26.006;2023-07-20T16:59:36;7.30;;;3.50;;
46290;SDS011;32023;44.444;26.006;2023-07-20T17:02:03;7.07;;;4.10;;
46290;SDS011;32023;44.444;26.006;2023-07-20T17:04:30;8.55;;;3.80;;
46290;SDS011;32023;44.444;26.006;2023-07-20T17:09:46;6.68;;;3.55;;
46290;SDS011;32023;44.444;26.006;2023-07-20T17:12:33;11.25;;;4.18;;
46290;SDS011;32023;44.444;26.006;2023-07-20T17:21:21;12.00;;;3.53;;
46290;SDS011;32023;44.444;26.006;2023-07-20T17:24:16;4.97;;;3.40;;
46290;SDS011;32023;44.444;26.006;2023-07-20T17:33:37;6.05;;;3.50;;
46290;SDS011;32023;44.444;26.006;2023-07-20T17:36:42;9.43;;;3.40;;
46290;SDS011;32023;44.444;26.006;2023-07-20T17:40:05;10.95;;;3.22;;
46290;SDS011;32023;44.444;26.006;2023-07-20T17:56:53;7.05;;;3.20;;
46290;SDS011;32023;44.444;26.006;2023-07-20T19:28:31;7.03;;;4.43;;
46290;SDS011;32023;44.444;26.006;2023-07-20T19:31:22;9.65;;;4.90;;
46290;SDS011;32023;44.444;26.006;2023-07-20T19:50:37;5.53;;;3.90;;
46290;SDS011;32023;44.444;26.006;2023-07-20T19:56:24;5.97;;;4.05;;
46290;SDS011;32023;44.444;26.006;2023-07-20T19:59:27;7.78;;;3.83;;
46290;SDS011;32023;44.444;26.006;2023-07-20T20:01:56;7.50;;;3.95;;
46290;SDS011;32023;44.444;26.006;2023-07-20T20:04:42;6.72;;;3.53;;
46290;SDS011;32023;44.444;26.006;2023-07-20T20:07:18;7.15;;;4.32;;
46290;SDS011;32023;44.444;26.006;2023-07-20T20:12:42;8.55;;;3.28;;
46290;SDS011;32023;44.444;26.006;2023-07-20T20:18:42;7.10;;;3.55;;
46290;SDS011;32023;44.444;26.006;2023-07-20T20:23:47;8.10;;;3.90;;
46290;SDS011;32023;44.444;26.006;2023-07-20T20:26:29;10.77;;;3.95;;
46290;SDS011;32023;44.444;26.006;2023-07-20T20:29:15;6.05;;;3.83;;
46290;SDS011;32023;44.444;26.006;2023-07-20T20:31:41;17.65;;;4.07;;
46290;SDS011;32023;44.444;26.006;2023-07-20T20:34:45;7.85;;;3.85;;
46290;SDS011;32023;44.444;26.006;2023-07-20T20:40:34;4.90;;;3.40;;
46290;SDS011;32023;44.444;26.006;2023-07-20T20:43:10;6.75;;;3.80;;
46290;SDS011;32023;44.444;26.006;2023-07-20T20:45:37;11.10;;;4.25;;
46290;SDS011;32023;44.444;26.006;2023-07-20T20:48:07;6.78;;;3.40;;
46290;SDS011;32023;44.444;26.006;2023-07-20T20:50:36;7.32;;;2.90;;
46290;SDS011;32023;44.444;26.006;2023-07-20T20:56:20;7.00;;;2.95;;
46290;SDS011;32023;44.444;26.006;2023-07-20T20:58:50;6.70;;;3.58;;
46290;SDS011;32023;44.444;26.006;2023-07-20T21:01:25;7.43;;;3.65;;
46290;SDS011;32023;44.444;26.006;2023-07-20T21:07:16;6.28;;;3.50;;
46290;SDS011;32023;44.444;26.006;2023-07-20T21:09:43;6.88;;;3.60;;
46290;SDS011;32023;44.444;26.006;2023-07-20T21:12:13;8.18;;;4.28;;
46290;SDS011;32023;44.444;26.006;2023-07-20T21:14:42;11.55;;;3.75;;
46290;SDS011;32023;44.444;26.006;2023-07-20T21:17:11;5.28;;;3.50;;
46290;SDS011;32023;44.444;26.006;2023-07-20T21:19:38;7.35;;;3.60;;
46290;SDS011;32023;44.444;26.006;2023-07-20T21:22:04;9.02;;;3.72;;
46290;SDS011;32023;44.444;26.006;2023-07-20T21:27:15;7.88;;;3.45;;
46290;SDS011;32023;44.444;26.006;2023-07-20T21:29:42;9.50;;;3.72;;
46290;SDS011;32023;44.444;26.006;2023-07-20T21:32:13;10.50;;;3.80;;
46290;SDS011;32023;44.444;26.006;2023-07-20T21:34:41;5.75;;;3.78;;
46290;SDS011;32023;44.444;26.006;2023-07-20T21:37:07;9.77;;;3.80;;
46290;SDS011;32023;44.444;26.006;2023-07-20T21:39:34;6.68;;;3.63;;
46290;SDS011;32023;44.444;26.006;2023-07-20T21:42:00;9.73;;;3.85;;
46290;SDS011;32023;44.444;26.006;2023-07-20T21:44:34;6.35;;;3.63;;
46290;SDS011;32023;44.444;26.006;2023-07-20T21:47:31;9.23;;;3.50;;
46290;SDS011;32023;44.444;26.006;2023-07-20T21:50:03;8.13;;;3.28;;
46290;SDS011;32023;44.444;26.006;2023-07-20T21:52:33;8.23;;;3.55;;
46290;SDS011;32023;44.444;26.006;2023-07-20T21:55:37;8.07;;;3.63;;
46290;SDS011;32023;44.444;26.006;2023-07-20T21:58:04;6.43;;;3.67;;
46290;SDS011;32023;44.444;26.006;2023-07-20T22:03:55;7.25;;;3.40;;
46290;SDS011;32023;44.444;26.006;2023-07-20T22:06:33;7.60;;;3.63;;
46290;SDS011;32023;44.444;26.006;2023-07-20T22:15:38;5.28;;;3.40;;
46290;SDS011;32023;44.444;26.006;2023-07-20T22:18:32;6.15;;;3.60;;
46290;SDS011;32023;44.444;26.006;2023-07-20T22:21:19;7.50;;;3.85;;
46290;SDS011;32023;44.444;26.006;2023-07-20T22:23:52;6.05;;;3.13;;
46290;SDS011;32023;44.444;26.006;2023-07-20T22:30:07;10.73;;;3.85;;
46290;SDS011;32023;44.444;26.006;2023-07-20T22:36:25;7.88;;;4.07;;
46290;SDS011;32023;44.444;26.006;2023-07-20T22:38:54;8.52;;;4.05;;
46290;SDS011;32023;44.444;26.006;2023-07-20T22:54:43;8.75;;;4.10;;
46290;SDS011;32023;44.444;26.006;2023-07-20T23:01:08;7.63;;;4.05;;
46290;SDS011;32023;44.444;26.006;2023-07-20T23:20:16;7.03;;;4.32;;
46290;SDS011;32023;44.444;26.006;2023-07-20T23:23:26;5.13;;;4.00;;
46290;SDS011;32023;44.444;26.006;2023-07-20T23:32:21;7.95;;;3.83;;
46290;SDS011;32023;44.444;26.006;2023-07-20T23:40:43;7.65;;;3.85;;
46290;SDS011;32023;44.444;26.006;2023-07-20T23:43:21;6.28;;;4.25;;
46290;SDS011;32023;44.444;26.006;2023-07-20T23:45:50;10.10;;;4.40;;
46290;SDS011;32023;44.444;26.006;2023-07-20T23:48:38;7.10;;;4.30;;
46290;SDS011;32023;44.444;26.006;2023-07-20T23:51:17;8.07;;;4.07;;
46290;SDS011;32023;44.444;26.006;2023-07-20T23:54:02;6.75;;;4.10;;
